Time;durP1;ratioP1;P1;durP2;ratioP2;P2;SDS_P1;SDS_P2;PMS_P1;PMS_P2;Temp;Humidity;BMP_temperature;BMP_pressure;BME280_temperature;BME280_humidity;BME280_pressure;Samples;Min_cycle;Max_cycle;Signal;HPM_P1;HPM_P2
2022/04/06 00:01:13;;;;;;;25.40;17.95;;;9.20;99.90;;;;;;5132997;27;20403;-46
2022/04/06 00:03:40;;;;;;;27.55;18.75;;;9.20;99.90;;;;;;5133161;27;20027;-48
2022/04/06 00:06:06;;;;;;;25.70;18.60;;;9.20;99.90;;;;;;5132786;27;20294;-45
2022/04/06 00:08:31;;;;;;;29.02;18.08;;;9.20;99.90;;;;;;5131056;27;20099;-47
2022/04/06 00:10:57;;;;;;;27.35;17.17;;;9.20;99.90;;;;;;5132669;27;20023;-47
2022/04/06 00:13:22;;;;;;;25.05;17.38;;;9.20;99.90;;;;;;5133094;27;20015;-46
2022/04/06 00:15:48;;;;;;;27.10;17.17;;;9.20;99.90;;;;;;5133243;27;20031;-47
2022/04/06 00:18:13;;;;;;;31.00;17.08;;;9.20;99.90;;;;;;5132745;27;20087;-48
2022/04/06 00:20:39;;;;;;;25.48;14.85;;;9.10;99.90;;;;;;5132125;27;20373;-48
2022/04/06 00:23:04;;;;;;;27.60;15.82;;;9.20;99.90;;;;;;5132760;27;20061;-45
2022/04/06 00:25:30;;;;;;;29.15;15.57;;;9.10;99.90;;;;;;5132841;27;20106;-47
2022/04/06 00:27:55;;;;;;;24.27;14.68;;;9.10;99.90;;;;;;5132865;27;20019;-45
2022/04/06 00:30:21;;;;;;;26.13;14.90;;;9.10;99.90;;;;;;5132191;27;20026;-46
2022/04/06 00:32:46;;;;;;;29.17;13.52;;;9.10;99.90;;;;;;5132560;27;20076;-48
2022/04/06 00:35:31;;;;;;;23.52;13.60;;;9.10;99.90;;;;;;5132440;27;20026;-45
2022/04/06 00:37:59;;;;;;;24.98;12.95;;;9.10;99.90;;;;;;5132547;27;20095;-47
2022/04/06 00:40:25;;;;;;;21.08;11.90;;;9.10;99.90;;;;;;5130249;27;20023;-46
2022/04/06 00:42:53;;;;;;;23.10;11.32;;;9.10;99.90;;;;;;5132249;27;20072;-45
2022/04/06 00:45:22;;;;;;;20.25;11.57;;;9.10;99.90;;;;;;5132429;27;20094;-47
2022/04/06 00:47:48;;;;;;;16.50;10.75;;;9.10;99.90;;;;;;5132386;27;20043;-46
2022/04/06 00:50:14;;;;;;;28.98;13.50;;;9.10;99.90;;;;;;5132005;27;20055;-59
2022/04/06 00:52:40;;;;;;;20.42;11.35;;;9.10;99.90;;;;;;5132253;27;20496;-59
2022/04/06 00:55:08;;;;;;;20.52;12.00;;;9.10;99.90;;;;;;5132342;27;20011;-59
2022/04/06 00:57:34;;;;;;;17.85;11.77;;;9.10;99.90;;;;;;5132136;27;20080;-60
2022/04/06 01:00:00;;;;;;;21.77;12.35;;;9.10;99.90;;;;;;5129262;27;20058;-59
2022/04/06 01:02:26;;;;;;;18.25;11.43;;;9.10;99.90;;;;;;5130158;27;20480;-59
2022/04/06 01:04:52;;;;;;;21.48;12.63;;;9.10;99.90;;;;;;5131736;27;20214;-59
2022/04/06 01:07:20;;;;;;;23.27;13.02;;;9.10;99.90;;;;;;5131687;27;20076;-59
2022/04/06 01:09:46;;;;;;;24.45;14.00;;;9.10;99.90;;;;;;5131221;27;20265;-59
2022/04/06 01:12:13;;;;;;;23.40;12.40;;;9.20;99.90;;;;;;5131686;27;20028;-59
2022/04/06 01:14:39;;;;;;;26.60;15.13;;;9.20;99.90;;;;;;5131670;27;20034;-59
2022/04/06 01:17:07;;;;;;;22.35;13.13;;;9.20;99.90;;;;;;5131676;27;20503;-59
2022/04/06 01:19:43;;;;;;;22.08;14.65;;;9.20;99.90;;;;;;5130924;27;20063;-59
2022/04/06 01:22:10;;;;;;;24.92;15.15;;;9.20;99.90;;;;;;5131416;27;20072;-59
2022/04/06 01:24:36;;;;;;;25.50;16.20;;;9.20;99.90;;;;;;5131673;27;20464;-59
2022/04/06 01:27:02;;;;;;;20.73;14.90;;;9.20;99.90;;;;;;5131239;27;20075;-59
2022/04/06 01:29:28;;;;;;;24.60;14.77;;;9.30;99.90;;;;;;5130771;27;20069;-59
2022/04/06 01:31:54;;;;;;;28.83;15.32;;;9.20;99.90;;;;;;5131599;27;20027;-59
2022/04/06 01:34:20;;;;;;;25.70;15.57;;;9.30;99.90;;;;;;5131294;27;20019;-59
2022/04/06 01:36:46;;;;;;;24.45;14.75;;;9.30;99.90;;;;;;5131364;27;20019;-59
2022/04/06 01:39:11;;;;;;;21.27;14.50;;;9.30;99.90;;;;;;5130535;27;20049;-59
2022/04/06 01:41:38;;;;;;;29.10;13.95;;;9.30;99.90;;;;;;5131296;27;20547;-59
2022/04/06 01:44:07;;;;;;;21.95;14.02;;;9.30;99.90;;;;;;5131607;27;20523;-60
2022/04/06 01:46:33;;;;;;;26.77;14.00;;;9.30;99.90;;;;;;5130090;27;20027;-59
2022/04/06 01:54:29;;;;;;;21.63;13.73;;;9.40;99.90;;;;;;5131109;27;20038;-59
2022/04/06 01:56:55;;;;;;;21.40;13.73;;;9.40;99.90;;;;;;5130881;27;20027;-59
2022/04/06 01:59:20;;;;;;;26.77;13.32;;;9.40;99.90;;;;;;5130236;27;20023;-59
2022/04/06 02:01:51;;;;;;;26.67;13.63;;;9.40;99.90;;;;;;5130873;27;20392;-59
2022/04/06 02:04:16;;;;;;;22.52;12.85;;;9.40;99.90;;;;;;5130723;27;20019;-61
2022/04/06 02:06:42;;;;;;;24.58;14.00;;;9.40;99.90;;;;;;5130603;27;20182;-59
2022/04/06 02:09:08;;;;;;;21.08;12.15;;;9.40;99.90;;;;;;5129975;27;20019;-59
2022/04/06 02:11:35;;;;;;;25.75;13.02;;;9.40;99.90;;;;;;5130360;27;20570;-59
2022/04/06 02:14:01;;;;;;;25.08;13.18;;;9.30;99.90;;;;;;5130688;27;20222;-59
2022/04/06 02:16:27;;;;;;;18.98;12.02;;;9.40;99.90;;;;;;5130657;27;20023;-59
2022/04/06 02:18:53;;;;;;;22.88;11.23;;;9.40;99.90;;;;;;5129771;27;20491;-59
2022/04/06 02:21:18;;;;;;;21.60;12.50;;;9.40;99.90;;;;;;5130458;27;20031;-59
2022/04/06 02:23:44;;;;;;;18.98;12.18;;;9.30;99.90;;;;;;5130606;27;20024;-59
2022/04/06 02:26:09;;;;;;;17.08;11.52;;;9.40;99.90;;;;;;5130847;27;20050;-59
2022/04/06 02:28:35;;;;;;;23.67;11.68;;;9.40;99.90;;;;;;5129792;27;20030;-59
2022/04/06 02:31:00;;;;;;;24.00;12.18;;;9.40;99.90;;;;;;5130109;27;20384;-59
2022/04/06 02:33:26;;;;;;;17.73;10.52;;;9.40;99.90;;;;;;5128964;27;20099;-59
2022/04/06 02:35:51;;;;;;;22.25;11.32;;;9.40;99.90;;;;;;5130451;27;20034;-59
2022/04/06 02:38:17;;;;;;;21.52;12.25;;;9.30;99.90;;;;;;5128689;27;20027;-59
2022/04/06 02:40:42;;;;;;;23.42;12.35;;;9.30;99.90;;;;;;5129390;27;20038;-59
2022/04/06 02:43:08;;;;;;;19.73;11.55;;;9.20;99.90;;;;;;5128582;27;20540;-59
2022/04/06 02:45:33;;;;;;;23.83;12.27;;;9.20;99.90;;;;;;5130061;27;20388;-59
2022/04/06 02:47:59;;;;;;;24.48;13.00;;;9.20;99.90;;;;;;5130246;27;20076;-59
2022/04/06 02:50:24;;;;;;;25.70;12.27;;;9.10;99.90;;;;;;5129203;27;20396;-59
2022/04/06 02:52:51;;;;;;;30.52;13.85;;;9.10;99.90;;;;;;5128475;27;20023;-59
2022/04/06 02:55:17;;;;;;;18.48;12.18;;;9.10;99.90;;;;;;5123741;27;20089;-59
2022/04/06 02:57:43;;;;;;;24.65;12.80;;;9.10;99.90;;;;;;5129787;27;20288;-59
2022/04/06 03:00:09;;;;;;;24.75;14.05;;;9.20;99.90;;;;;;5129099;27;20031;-58
2022/04/06 03:02:35;;;;;;;24.95;13.98;;;9.20;99.90;;;;;;5128697;27;20114;-60
2022/04/06 03:05:00;;;;;;;24.48;13.95;;;9.20;99.90;;;;;;5128300;27;20074;-58
2022/04/06 03:07:26;;;;;;;28.73;15.80;;;9.20;99.90;;;;;;5129501;27;20507;-59
2022/04/06 03:09:52;;;;;;;32.10;17.77;;;9.20;99.90;;;;;;5128838;27;20031;-59
2022/04/06 03:12:18;;;;;;;24.17;16.33;;;9.20;99.90;;;;;;5129533;27;20023;-59
2022/04/06 03:14:43;;;;;;;29.30;16.88;;;9.20;99.90;;;;;;5129732;27;20468;-59
2022/04/06 03:17:08;;;;;;;34.17;17.70;;;9.20;99.90;;;;;;5129584;27;20031;-58
2022/04/06 03:19:34;;;;;;;32.30;18.77;;;9.20;99.90;;;;;;5128763;27;20019;-58
2022/04/06 03:22:00;;;;;;;36.97;19.58;;;9.20;99.90;;;;;;5130241;27;20031;-59
2022/04/06 03:24:25;;;;;;;38.45;19.48;;;9.20;99.90;;;;;;5135944;27;20118;-58
2022/04/06 03:26:51;;;;;;;44.50;21.45;;;9.30;99.90;;;;;;5136313;27;20079;-58
2022/04/06 03:29:16;;;;;;;35.90;20.88;;;9.30;99.90;;;;;;5135642;27;20365;-58
2022/04/06 03:31:42;;;;;;;38.72;21.25;;;9.30;99.90;;;;;;5136377;27;20019;-60
2022/04/06 03:34:07;;;;;;;38.10;21.05;;;9.30;99.90;;;;;;5136328;27;20035;-59
2022/04/06 03:36:33;;;;;;;33.88;20.10;;;9.30;99.90;;;;;;5136448;27;20475;-59
2022/04/06 03:38:58;;;;;;;36.00;20.98;;;9.40;99.90;;;;;;5135401;27;20404;-60
2022/04/06 03:41:24;;;;;;;40.05;22.40;;;9.30;99.90;;;;;;5136407;27;20020;-60
2022/04/06 03:43:49;;;;;;;36.78;21.48;;;9.30;99.90;;;;;;5136213;27;20019;-59
2022/04/06 03:46:16;;;;;;;42.38;23.98;;;9.30;99.90;;;;;;5136189;27;20030;-59
2022/04/06 03:48:42;;;;;;;40.15;24.00;;;9.40;99.90;;;;;;5135483;27;20015;-60
2022/04/06 03:51:07;;;;;;;39.75;23.90;;;9.40;99.90;;;;;;5134999;27;20035;-59
2022/04/06 03:53:33;;;;;;;48.10;26.58;;;9.40;99.90;;;;;;5136153;27;20019;-47
2022/04/06 03:55:58;;;;;;;46.42;25.58;;;9.40;99.90;;;;;;5134923;27;20026;-47
2022/04/06 03:58:24;;;;;;;47.30;26.40;;;9.40;99.90;;;;;;5136084;27;20038;-46
2022/04/06 04:00:49;;;;;;;48.92;26.77;;;9.40;99.90;;;;;;5135350;27;20035;-48
2022/04/06 04:03:15;;;;;;;54.00;29.23;;;9.40;99.90;;;;;;5135922;27;20095;-47
2022/04/06 04:05:40;;;;;;;51.28;30.48;;;9.40;99.90;;;;;;5136005;27;20062;-46
2022/04/06 04:08:06;;;;;;;60.08;32.58;;;9.40;99.90;;;;;;5135950;27;20033;-48
2022/04/06 04:10:32;;;;;;;58.17;33.47;;;9.40;99.90;;;;;;5135728;27;20031;-47
2022/04/06 04:12:57;;;;;;;58.17;33.53;;;9.50;99.90;;;;;;5136057;27;20027;-47
2022/04/06 04:15:24;;;;;;;57.38;33.58;;;9.50;99.90;;;;;;5136013;27;20044;-47
2022/04/06 04:17:49;;;;;;;57.35;34.53;;;9.50;99.90;;;;;;5135970;27;20027;-49
2022/04/06 04:20:15;;;;;;;57.05;34.80;;;9.50;99.90;;;;;;5135667;27;20031;-47
2022/04/06 04:22:40;;;;;;;62.58;36.63;;;9.50;99.90;;;;;;5135716;27;20149;-49
2022/04/06 04:25:06;;;;;;;58.72;36.65;;;9.50;99.90;;;;;;5135689;27;20044;-49
2022/04/06 04:27:32;;;;;;;65.45;37.47;;;9.50;99.90;;;;;;5135560;27;20019;-49
2022/04/06 04:29:58;;;;;;;64.80;37.63;;;9.50;99.90;;;;;;5135078;27;20349;-47
2022/04/06 04:32:23;;;;;;;59.08;36.33;;;9.60;99.90;;;;;;5134464;27;20029;-46
2022/04/06 04:34:49;;;;;;;62.95;38.15;;;9.60;99.90;;;;;;5132641;27;20094;-47
2022/04/06 04:37:14;;;;;;;60.50;35.97;;;9.60;99.90;;;;;;5132303;27;20392;-47
2022/04/06 04:39:40;;;;;;;63.42;35.80;;;9.70;99.90;;;;;;5131771;27;20034;-49
2022/04/06 04:42:06;;;;;;;64.45;35.47;;;9.70;99.90;;;;;;5132284;27;20476;-49
2022/04/06 04:44:32;;;;;;;65.60;36.60;;;9.60;99.90;;;;;;5132522;27;20079;-47
2022/04/06 04:46:57;;;;;;;62.00;36.53;;;9.60;99.90;;;;;;5132248;27;20437;-47
2022/04/06 04:49:23;;;;;;;59.67;34.65;;;9.70;99.90;;;;;;5131822;27;20106;-46
2022/04/06 04:51:48;;;;;;;64.18;34.95;;;9.70;99.90;;;;;;5131857;27;20030;-50
2022/04/06 04:54:14;;;;;;;60.88;34.42;;;9.70;99.90;;;;;;5129211;27;20019;-47
2022/04/06 04:56:41;;;;;;;58.25;34.30;;;9.70;99.90;;;;;;5131273;27;20388;-47
2022/04/06 04:59:07;;;;;;;60.17;35.00;;;9.70;99.90;;;;;;5131021;27;20022;-47
2022/04/06 05:01:32;;;;;;;69.13;35.72;;;9.70;99.90;;;;;;5131818;27;20031;-49
2022/04/06 05:03:58;;;;;;;64.25;34.58;;;9.70;99.90;;;;;;5131860;27;20022;-49
2022/04/06 05:06:24;;;;;;;60.63;33.05;;;9.80;99.90;;;;;;5130310;27;20050;-46
2022/04/06 05:08:49;;;;;;;57.13;33.83;;;9.80;99.90;;;;;;5131094;27;20034;-46
2022/04/06 05:11:15;;;;;;;58.60;32.47;;;9.80;99.90;;;;;;5131568;27;20532;-47
2022/04/06 05:13:41;;;;;;;57.40;32.15;;;9.70;99.90;;;;;;5132070;27;20031;-47
2022/04/06 05:16:06;;;;;;;57.50;32.88;;;9.90;99.90;;;;;;5131701;27;20034;-47
2022/04/06 05:18:32;;;;;;;57.30;33.15;;;9.80;99.90;;;;;;5130974;27;20076;-47
2022/04/06 05:20:58;;;;;;;60.88;32.50;;;9.80;99.90;;;;;;5131267;27;20369;-49
2022/04/06 05:23:23;;;;;;;54.13;31.52;;;9.80;99.90;;;;;;5131447;27;20055;-49
2022/04/06 05:25:49;;;;;;;61.85;32.40;;;9.80;99.90;;;;;;5131569;27;20038;-47
2022/04/06 05:28:18;;;;;;;54.97;30.33;;;9.90;99.90;;;;;;5131421;27;20419;-48
2022/04/06 05:30:45;;;;;;;53.75;29.02;;;9.90;99.90;;;;;;5130555;27;20011;-50
2022/04/06 05:33:11;;;;;;;48.78;25.38;;;9.90;99.90;;;;;;5131328;27;20260;-48
2022/04/06 05:35:37;;;;;;;49.10;28.13;;;9.90;99.90;;;;;;5129744;27;20027;-47
2022/04/06 05:38:03;;;;;;;50.90;27.92;;;9.90;99.90;;;;;;5131740;27;20138;-48
2022/04/06 05:40:28;;;;;;;55.45;28.67;;;9.90;99.90;;;;;;5130361;27;20098;-46
2022/04/06 05:42:54;;;;;;;46.03;26.52;;;9.90;99.90;;;;;;5131047;27;20057;-46
2022/04/06 05:45:19;;;;;;;43.38;28.20;;;9.90;99.90;;;;;;5130675;27;20031;-46
2022/04/06 05:47:46;;;;;;;54.25;26.00;;;9.90;99.90;;;;;;5130970;27;20027;-50
2022/04/06 05:50:13;;;;;;;50.38;27.38;;;10.00;99.90;;;;;;5130344;27;20311;-47
2022/04/06 05:52:40;;;;;;;46.97;25.73;;;9.90;99.90;;;;;;5130842;27;20015;-48
2022/04/06 05:55:06;;;;;;;37.53;24.10;;;9.90;99.90;;;;;;5130929;27;20022;-46
2022/04/06 05:57:32;;;;;;;44.65;24.10;;;9.90;99.90;;;;;;5130883;27;20076;-46
2022/04/06 05:59:57;;;;;;;43.05;23.45;;;9.90;99.90;;;;;;5130276;27;20114;-46
2022/04/06 06:02:26;;;;;;;46.75;23.50;;;10.00;99.90;;;;;;5130702;27;20027;-47
2022/04/06 06:04:52;;;;;;;41.88;22.63;;;10.00;99.90;;;;;;5130654;27;20054;-45
2022/04/06 06:07:21;;;;;;;39.10;21.83;;;10.10;99.90;;;;;;5129223;27;20051;-45
2022/04/06 06:09:46;;;;;;;35.70;21.27;;;10.00;99.90;;;;;;5129952;27;20099;-49
2022/04/06 06:12:12;;;;;;;36.70;20.38;;;10.10;99.90;;;;;;5131097;27;20046;-45
2022/04/06 06:14:38;;;;;;;32.65;20.55;;;10.00;99.90;;;;;;5129173;27;20144;-47
2022/04/06 06:17:03;;;;;;;32.10;18.83;;;10.10;99.90;;;;;;5130452;27;20023;-46
2022/04/06 06:19:29;;;;;;;36.53;19.00;;;10.10;99.90;;;;;;5129658;27;20054;-46
2022/04/06 06:21:55;;;;;;;43.65;19.80;;;10.10;99.90;;;;;;5130464;27;20022;-47
2022/04/06 06:24:21;;;;;;;33.85;19.20;;;10.10;99.90;;;;;;5130359;27;20101;-46
2022/04/06 06:26:47;;;;;;;41.70;20.05;;;10.20;99.90;;;;;;5130145;27;20019;-46
2022/04/06 06:29:12;;;;;;;34.60;20.35;;;10.10;99.90;;;;;;5129587;27;20026;-47
2022/04/06 06:31:38;;;;;;;38.20;20.25;;;9.90;99.90;;;;;;5128880;27;20011;-49
2022/04/06 06:34:04;;;;;;;35.20;19.58;;;9.90;99.90;;;;;;5130096;27;20223;-46
2022/04/06 06:36:29;;;;;;;42.38;21.63;;;9.80;99.90;;;;;;5128939;27;20019;-47
2022/04/06 06:38:56;;;;;;;41.55;22.13;;;9.70;99.90;;;;;;5129744;27;20088;-46
2022/04/06 06:41:22;;;;;;;45.10;20.48;;;9.60;99.90;;;;;;5130121;27;20026;-46
2022/04/06 06:43:49;;;;;;;35.90;21.73;;;9.60;99.90;;;;;;5130012;27;20023;-47
2022/04/06 06:46:19;;;;;;;37.70;20.23;;;9.50;99.90;;;;;;5129931;27;20510;-48
2022/04/06 06:48:45;;;;;;;42.42;21.60;;;9.50;99.90;;;;;;5128970;27;20058;-49
2022/04/06 06:51:12;;;;;;;34.30;20.20;;;9.40;99.90;;;;;;5129887;27;20020;-47
2022/04/06 06:53:37;;;;;;;36.45;18.67;;;9.50;99.90;;;;;;5130256;27;20019;-46
2022/04/06 06:56:03;;;;;;;35.05;19.98;;;9.50;99.90;;;;;;5130046;27;20487;-46
2022/04/06 06:58:28;;;;;;;38.83;19.40;;;9.50;99.90;;;;;;5129465;27;20038;-46
2022/04/06 07:00:54;;;;;;;32.88;18.10;;;9.60;99.90;;;;;;5128953;27;20042;-49
2022/04/06 07:03:19;;;;;;;28.35;17.13;;;9.60;99.90;;;;;;5129679;27;20511;-47
2022/04/06 07:05:45;;;;;;;35.55;17.00;;;9.60;99.90;;;;;;5128396;27;20509;-47
2022/04/06 07:08:11;;;;;;;33.33;18.05;;;9.70;99.90;;;;;;5129417;27;20034;-48
2022/04/06 07:10:37;;;;;;;39.38;16.38;;;9.70;99.90;;;;;;5128945;27;20098;-47
2022/04/06 07:13:02;;;;;;;27.42;17.08;;;9.70;99.90;;;;;;5129686;27;20039;-46
2022/04/06 07:15:28;;;;;;;26.13;15.63;;;9.80;99.90;;;;;;5129493;27;20083;-48
2022/04/06 07:17:56;;;;;;;28.52;15.88;;;9.80;99.90;;;;;;5128058;27;20114;-50
2022/04/06 07:20:23;;;;;;;36.55;15.85;;;9.90;99.90;;;;;;5128838;27;20468;-47
2022/04/06 07:22:49;;;;;;;30.92;15.15;;;9.90;99.90;;;;;;5129386;27;20027;-47
2022/04/06 07:25:14;;;;;;;27.88;15.57;;;10.00;99.90;;;;;;5129564;27;20388;-46
2022/04/06 07:27:40;;;;;;;29.15;15.32;;;10.00;99.90;;;;;;5129142;27;20118;-46
2022/04/06 07:30:07;;;;;;;26.88;16.05;;;10.10;99.90;;;;;;5128665;27;20024;-45
2022/04/06 07:32:35;;;;;;;28.50;14.90;;;10.20;99.90;;;;;;5129365;27;20388;-49
2022/04/06 07:35:01;;;;;;;26.48;15.30;;;10.30;99.90;;;;;;5129574;27;20341;-48
2022/04/06 07:37:26;;;;;;;30.35;16.33;;;10.40;99.90;;;;;;5129536;27;20106;-49
2022/04/06 07:39:52;;;;;;;28.13;15.55;;;10.50;99.90;;;;;;5128872;27;20023;-47
2022/04/06 07:42:17;;;;;;;30.38;16.27;;;10.50;99.90;;;;;;5129370;27;20031;-46
2022/04/06 07:44:43;;;;;;;32.42;16.00;;;10.60;99.90;;;;;;5129070;27;20024;-47
2022/04/06 07:47:08;;;;;;;28.50;16.38;;;10.60;99.90;;;;;;5129359;28;20122;-50
2022/04/06 07:49:34;;;;;;;33.70;16.48;;;10.60;99.90;;;;;;5128729;28;20400;-47
2022/04/06 07:51:59;;;;;;;28.48;16.35;;;10.60;99.90;;;;;;5129612;27;20111;-48
2022/04/06 07:54:25;;;;;;;28.60;16.98;;;10.70;99.90;;;;;;5129540;28;20480;-47
2022/04/06 07:56:50;;;;;;;28.25;16.90;;;10.80;99.90;;;;;;5129262;27;20031;-49
2022/04/06 07:59:16;;;;;;;34.67;17.85;;;10.80;99.90;;;;;;5128480;27;20473;-49
2022/04/06 08:01:41;;;;;;;32.17;19.58;;;10.90;99.90;;;;;;5129210;27;20546;-48
2022/04/06 08:04:07;;;;;;;33.95;18.20;;;11.00;99.90;;;;;;5129169;28;20027;-48
2022/04/06 08:06:32;;;;;;;33.25;17.05;;;11.10;99.90;;;;;;5128949;27;20031;-47
2022/04/06 08:08:59;;;;;;;27.13;17.35;;;11.20;99.90;;;;;;5129447;27;20090;-45
2022/04/06 08:11:24;;;;;;;36.28;17.48;;;11.30;99.90;;;;;;5133038;27;20015;-48
2022/04/06 08:13:50;;;;;;;28.67;17.27;;;11.40;99.90;;;;;;5133237;27;20064;-49
2022/04/06 08:16:16;;;;;;;34.17;17.02;;;11.50;99.90;;;;;;5132831;27;20091;-46
2022/04/06 08:18:42;;;;;;;29.23;18.30;;;11.30;99.90;;;;;;5132141;27;20487;-47
2022/04/06 08:21:09;;;;;;;33.47;16.73;;;11.20;99.90;;;;;;5133043;27;20046;-47
2022/04/06 08:23:35;;;;;;;25.33;15.32;;;11.40;99.90;;;;;;5132829;27;20065;-46
2022/04/06 08:26:01;;;;;;;28.38;16.08;;;11.40;99.90;;;;;;5133005;27;20023;-50
2022/04/06 08:28:27;;;;;;;24.17;14.30;;;11.50;99.90;;;;;;5132514;27;20494;-48
2022/04/06 08:30:52;;;;;;;27.75;14.63;;;11.50;99.90;;;;;;5131759;27;20027;-46
2022/04/06 08:33:18;;;;;;;32.70;14.57;;;11.60;99.90;;;;;;5132511;27;20145;-49
2022/04/06 08:35:43;;;;;;;28.42;14.35;;;11.60;99.90;;;;;;5132356;27;20023;-48
2022/04/06 08:38:15;;;;;;;23.98;14.82;;;11.70;99.90;;;;;;5132694;27;20020;-49
2022/04/06 08:40:42;;;;;;;20.98;13.13;;;11.60;99.90;;;;;;5132094;27;20102;-48
2022/04/06 08:43:09;;;;;;;25.63;12.48;;;11.50;99.90;;;;;;5132572;27;20034;-45
2022/04/06 08:45:39;;;;;;;19.10;11.82;;;11.60;99.90;;;;;;5132398;27;20506;-50
2022/04/06 08:48:09;;;;;;;24.73;11.45;;;11.80;99.90;;;;;;5132321;27;20048;-47
2022/04/06 08:50:37;;;;;;;18.38;10.55;;;11.90;99.90;;;;;;5131601;27;20069;-47
2022/04/06 08:53:04;;;;;;;16.23;11.30;;;11.80;99.90;;;;;;5132164;27;20019;-48
2022/04/06 08:55:31;;;;;;;16.42;9.57;;;11.70;99.90;;;;;;5132110;27;20015;-46
2022/04/06 08:57:58;;;;;;;19.02;10.63;;;12.00;99.90;;;;;;5130573;27;20027;-46
2022/04/06 09:00:23;;;;;;;17.73;9.70;;;12.10;99.90;;;;;;5131571;27;20122;-47
2022/04/06 09:02:49;;;;;;;16.58;9.93;;;12.00;99.90;;;;;;5131977;27;20524;-48
2022/04/06 09:05:15;;;;;;;14.75;8.23;;;12.00;99.90;;;;;;5132089;27;20230;-47
2022/04/06 09:07:42;;;;;;;16.48;9.52;;;11.80;99.90;;;;;;5131860;27;20526;-46
2022/04/06 09:10:08;;;;;;;12.98;7.72;;;11.80;99.90;;;;;;5131172;27;20050;-48
2022/04/06 09:12:35;;;;;;;20.02;9.30;;;11.60;99.90;;;;;;5131822;27;20019;-47
2022/04/06 09:15:09;;;;;;;17.02;9.48;;;11.60;99.90;;;;;;5131689;27;20027;-50
2022/04/06 09:17:47;;;;;;;12.52;9.00;;;12.00;99.90;;;;;;5131767;27;20023;-48
2022/04/06 09:20:14;;;;;;;16.55;9.10;;;12.00;99.90;;;;;;5130529;27;20119;-47
2022/04/06 09:22:40;;;;;;;16.33;8.90;;;11.90;99.90;;;;;;5130256;27;20087;-48
2022/04/06 09:25:06;;;;;;;15.45;7.72;;;11.80;99.90;;;;;;5130302;27;20114;-46
2022/04/06 09:27:33;;;;;;;13.13;8.10;;;11.60;99.90;;;;;;5131618;27;20110;-47
2022/04/06 09:30:02;;;;;;;13.55;8.27;;;11.60;99.90;;;;;;5131260;27;20560;-46
2022/04/06 09:32:27;;;;;;;16.80;8.27;;;11.50;99.90;;;;;;5131481;27;20236;-47
2022/04/06 09:34:53;;;;;;;10.07;7.15;;;11.50;99.90;;;;;;5131545;27;20054;-48
2022/04/06 09:37:30;;;;;;;13.48;7.47;;;11.70;99.90;;;;;;5131432;27;20062;-50
2022/04/06 09:40:06;;;;;;;14.65;8.07;;;11.80;99.90;;;;;;5129291;27;20564;-48
2022/04/06 09:42:31;;;;;;;19.52;8.02;;;11.70;99.90;;;;;;5129920;27;20472;-47
2022/04/06 09:47:53;;;;;;;13.90;7.90;;;11.60;99.90;;;;;;5131040;27;20038;-47
2022/04/06 09:50:24;;;;;;;17.63;7.32;;;11.50;99.90;;;;;;5130647;27;20027;-48
2022/04/06 09:52:51;;;;;;;11.20;6.38;;;11.40;99.90;;;;;;5130979;27;20015;-50
2022/04/06 09:55:19;;;;;;;10.15;6.50;;;11.30;99.90;;;;;;5129696;27;20184;-46
2022/04/06 09:57:56;;;;;;;11.23;5.72;;;11.30;99.90;;;;;;5131376;27;20027;-46
2022/04/06 10:00:25;;;;;;;13.65;6.15;;;11.40;99.90;;;;;;5130181;27;20487;-47
2022/04/06 10:03:10;;;;;;;11.65;5.13;;;11.20;99.90;;;;;;5130857;27;20054;-48
2022/04/06 10:05:38;;;;;;;11.25;5.30;;;11.30;99.90;;;;;;5129506;27;20023;-45
2022/04/06 10:08:05;;;;;;;12.43;4.60;;;11.60;99.90;;;;;;5130601;27;20476;-59
2022/04/06 10:10:33;;;;;;;11.40;4.65;;;11.70;99.90;;;;;;5130008;27;20065;-59
2022/04/06 10:12:59;;;;;;;7.88;4.97;;;11.90;99.90;;;;;;5130639;27;20030;-59
2022/04/06 10:15:25;;;;;;;9.55;5.70;;;11.70;99.90;;;;;;5129171;27;20027;-59
2022/04/06 10:17:51;;;;;;;8.30;4.47;;;11.60;99.90;;;;;;5130722;27;20078;-59
2022/04/06 10:20:41;;;;;;;14.13;5.25;;;11.70;99.90;;;;;;5130008;27;20029;-59
2022/04/06 10:23:26;;;;;;;10.07;4.53;;;11.70;99.90;;;;;;5130379;27;20261;-59
2022/04/06 10:26:13;;;;;;;9.60;4.78;;;11.70;99.90;;;;;;5130651;27;20511;-60
2022/04/06 10:28:44;;;;;;;9.00;4.82;;;11.50;99.90;;;;;;5129807;27;20203;-59
2022/04/06 10:31:22;;;;;;;15.68;5.22;;;11.60;99.90;;;;;;5129433;27;20027;-59
2022/04/06 10:33:49;;;;;;;9.23;4.90;;;11.60;99.90;;;;;;5129198;27;20031;-59
2022/04/06 10:36:23;;;;;;;11.13;6.18;;;11.50;99.90;;;;;;5128877;27;20023;-59
2022/04/06 10:39:07;;;;;;;12.80;4.63;;;11.40;99.90;;;;;;5129435;27;20023;-59
2022/04/06 10:41:34;;;;;;;8.93;5.43;;;11.40;99.90;;;;;;5129788;27;20030;-59
2022/04/06 10:44:00;;;;;;;8.93;5.22;;;11.40;99.90;;;;;;5130321;27;20025;-59
2022/04/06 10:46:39;;;;;;;9.40;4.80;;;11.40;99.90;;;;;;5130162;27;20118;-59
2022/04/06 10:49:08;;;;;;;16.38;5.70;;;11.50;99.90;;;;;;5129429;27;20038;-59
2022/04/06 10:51:37;;;;;;;10.68;4.95;;;11.40;99.90;;;;;;5130037;27;20022;-59
2022/04/06 10:54:14;;;;;;;13.38;5.72;;;11.40;99.90;;;;;;5129937;27;20581;-59
2022/04/06 10:57:03;;;;;;;9.80;5.03;;;11.50;99.90;;;;;;5129835;27;20020;-59
2022/04/06 10:59:29;;;;;;;11.38;5.00;;;11.50;99.90;;;;;;5120536;27;20031;-59
2022/04/06 11:02:20;;;;;;;8.65;5.07;;;11.40;99.90;;;;;;5129514;27;20023;-59
2022/04/06 11:04:46;;;;;;;;;;;11.50;99.90;;;;;;5128816;27;20027;-59
2022/04/06 11:07:15;;;;;;;7.72;4.57;;;11.40;99.90;;;;;;5129581;27;19911;-58
2022/04/06 11:12:31;;;;;;;7.28;5.07;;;11.30;99.90;;;;;;5131317;27;20034;-59
2022/04/06 11:14:59;;;;;;;10.18;4.82;;;11.40;99.90;;;;;;5131520;27;20460;-58
2022/04/06 11:17:44;;;;;;;10.00;5.18;;;11.40;99.90;;;;;;5128654;27;20038;-60
2022/04/06 11:20:28;;;;;;;7.28;4.90;;;11.40;99.90;;;;;;5129664;27;20133;-59
2022/04/06 11:22:54;;;;;;;11.15;4.88;;;11.30;99.90;;;;;;5131228;28;20030;-60
2022/04/06 11:25:22;;;;;;;13.93;4.88;;;11.30;99.90;;;;;;5131361;27;20054;-60
2022/04/06 11:27:49;;;;;;;8.85;5.05;;;11.30;99.90;;;;;;5131222;28;20028;-60
2022/04/06 11:30:20;;;;;;;9.65;5.05;;;11.30;99.90;;;;;;5129555;27;20528;-59
2022/04/06 11:32:54;;;;;;;6.40;4.20;;;11.30;99.90;;;;;;5130337;27;20384;-59
2022/04/06 11:35:20;;;;;;;14.73;4.47;;;11.20;99.90;;;;;;5131340;27;20080;-60
2022/04/06 11:37:49;;;;;;;10.85;4.88;;;11.10;99.90;;;;;;5129805;27;20480;-60
2022/04/06 11:40:17;;;;;;;7.10;4.53;;;11.20;99.90;;;;;;5127997;27;20035;-60
2022/04/06 11:43:07;;;;;;;10.05;4.45;;;11.10;99.90;;;;;;5121251;28;20125;-60
2022/04/06 11:45:37;;;;;;;10.45;5.00;;;11.00;99.90;;;;;;5112577;28;20066;-47
2022/04/06 11:48:06;;;;;;;8.85;4.97;;;11.10;99.90;;;;;;5112382;28;20055;-53
2022/04/06 11:50:37;;;;;;;8.40;5.18;;;11.10;99.90;;;;;;5110376;28;20043;-49
2022/04/06 11:53:15;;;;;;;9.27;5.05;;;11.20;99.90;;;;;;5111313;28;20024;-50
2022/04/06 11:55:48;;;;;;;8.48;4.30;;;11.10;99.90;;;;;;5111426;28;20054;-47
2022/04/06 11:58:32;;;;;;;12.55;5.68;;;11.10;99.90;;;;;;5112294;28;20031;-48
2022/04/06 12:01:05;;;;;;;14.20;5.50;;;11.10;99.90;;;;;;5112032;28;20471;-44
2022/04/06 12:03:32;;;;;;;6.88;4.63;;;11.20;99.90;;;;;;5112196;28;20471;-51
2022/04/06 12:05:58;;;;;;;10.35;5.55;;;11.30;99.90;;;;;;5110833;28;20032;-47
2022/04/06 12:08:23;;;;;;;10.25;4.65;;;11.30;99.90;;;;;;5111867;28;20019;-48
2022/04/06 12:10:58;;;;;;;7.75;5.00;;;11.30;99.90;;;;;;5110059;28;20020;-47
2022/04/06 12:13:27;;;;;;;7.68;5.10;;;11.40;99.90;;;;;;5110636;28;20030;-49
2022/04/06 12:15:55;;;;;;;12.57;5.18;;;11.40;99.90;;;;;;5112223;28;20031;-46
2022/04/06 12:18:22;;;;;;;11.52;6.10;;;11.30;99.90;;;;;;5110334;28;20050;-49
2022/04/06 12:20:48;;;;;;;10.27;5.07;;;11.20;99.90;;;;;;5111881;28;20115;-48
2022/04/06 12:23:16;;;;;;;8.60;5.43;;;11.30;99.90;;;;;;5114052;28;20026;-46
2022/04/06 12:25:42;;;;;;;7.95;6.15;;;11.30;99.90;;;;;;5130429;27;20072;-46
2022/04/06 12:28:11;;;;;;;11.60;6.95;;;11.20;99.90;;;;;;5134226;27;20227;-48
2022/04/06 12:30:49;;;;;;;9.85;5.55;;;11.20;99.90;;;;;;5132446;27;20030;-47
2022/04/06 12:33:14;;;;;;;11.57;6.85;;;11.20;99.90;;;;;;5132910;27;20016;-49
2022/04/06 12:35:40;;;;;;;13.90;7.00;;;11.20;99.90;;;;;;5129544;27;20485;-47
2022/04/06 12:38:16;;;;;;;7.80;6.00;;;11.30;99.90;;;;;;5122288;27;20027;-49
2022/04/06 12:40:41;;;;;;;9.00;6.13;;;11.40;99.90;;;;;;5121641;27;20032;-47
2022/04/06 12:43:23;;;;;;;11.95;6.70;;;11.50;99.90;;;;;;5121210;27;20034;-47
2022/04/06 12:45:49;;;;;;;11.45;6.30;;;11.50;99.90;;;;;;5121883;27;20035;-46
2022/04/06 12:48:16;;;;;;;9.45;5.45;;;11.50;99.90;;;;;;5120088;27;20022;-47